Terminal Aerodrome Forecast
Issued by NWS

Home | Current Version | Previous Version | Text Only | Print | Product List | Glossary On
Versions: 1 2 3 4 5 6 7 8 9 10 11 12 13 14 15 16 17 18 19
000
FTUS45 KRIW 260520
TAFJAC
TAF
KJAC 260520Z 2606/2706 VRB06KT P6SM VCFG SCT006 SCT030
      TEMPO 2610/2613 BKN006
     FM261300 VRB06KT P6SM VCSH BKN035
     FM262000 23012G18KT P6SM VCTS SCT035CB
     FM270200 VRB06KT P6SM FEW009 SCT020
      AMD LTD TO CLD VIS AND WIND=

USA.gov is the U.S. government's official web portal to all federal, state and local government web resources and services.